Wainfleet, United Kingdom
Current Conditions -  °F | °C
As of 11:50 AM on Monday 24 Nov 2014 (Local Time) from EGXC Reporting Station
Clear Clear  
Wind Chill: 38°   Ceiling: Unl
Heat Index: 43°   Visibility: 6mi
Dew Point: 39°   Wind: 8mph
Humidity: 87%   Direction: 250°WSW
Pressure: 30.3"   Gusts: NA
Location:  53.03°N, 0.27°E
Report Text: EGXC 241150Z 25007KT CAVOK 06/04 Q1026 BLU
Loading
Personal Weather Stations






























Interactive Weather Map New forecast layout! Learn more

10-Day Weather Forecast

Advertisements
Track Severe Weather on mobile